Time;durP1;ratioP1;P1;durP2;ratioP2;P2;SDS_P1;SDS_P2;PMS_P1;PMS_P2;Temp;Humidity;BMP_temperature;BMP_pressure;BME280_temperature;BME280_humidity;BME280_pressure;Samples;Min_cycle;Max_cycle;Signal;HPM_P1;HPM_P2
2023/05/30 00:00:59;;;;;;;2.80;1.53;;;17.80;46.00;;;;;;4955044;28;20448;-82
2023/05/30 00:04:03;;;;;;;;;;;;;;;;;;;;;
2023/05/30 00:07:25;;;;;;;2.57;1.93;;;17.70;45.50;;;;;;4919987;28;20490;-84
2023/05/30 00:15:16;;;;;;;3.00;1.03;;;17.40;46.10;;;;;;5019888;28;20528;-82
2023/05/30 00:22:04;;;;;;;;;;;;;;;;;;;;;
2023/05/30 00:25:32;;;;;;;4.53;1.20;;;17.30;46.90;;;;;;4999971;28;20466;-85
2023/05/30 00:28:40;;;;;;;1.57;1.20;;;17.30;46.70;;;;;;4996515;28;20490;-82
2023/05/30 00:31:39;;;;;;;1.47;1.00;;;17.10;46.30;;;;;;4986568;28;20459;-83
2023/05/30 00:41:26;;;;;;;5.37;1.50;;;16.90;46.70;;;;;;5135517;23;20477;-83
2023/05/30 00:47:34;;;;;;;4.10;1.53;;;16.80;47.20;;;;;;5071075;23;20491;-82
2023/05/30 00:50:55;;;;;;;5.27;1.20;;;16.90;46.90;;;;;;5052426;28;20516;-81
2023/05/30 01:01:19;;;;;;;2.20;1.23;;;16.70;47.40;;;;;;4970143;28;20457;-80
2023/05/30 01:08:24;;;;;;;2.30;1.00;;;16.70;48.20;;;;;;4975842;28;20469;-82
2023/05/30 01:11:50;;;;;;;;;;;;;;;;;;;;;
2023/05/30 01:15:26;;;;;;;1.10;1.00;;;16.50;48.30;;;;;;5003271;28;20476;-82
2023/05/30 01:19:14;;;;;;;4.03;1.40;;;16.40;48.80;;;;;;5030354;28;20456;-79
2023/05/30 01:22:22;;;;;;;3.47;1.30;;;16.40;49.10;;;;;;5023373;28;20498;-81
2023/05/30 01:25:53;;;;;;;1.63;1.10;;;16.40;49.20;;;;;;5014302;28;20451;-83
2023/05/30 01:32:34;;;;;;;3.13;1.00;;;16.30;48.80;;;;;;5009695;28;20455;-84
2023/05/30 01:36:14;;;;;;;4.77;1.47;;;16.20;49.20;;;;;;5007586;28;20482;-82
2023/05/30 01:39:26;;;;;;;;;;;;;;;;;;;;;
2023/05/30 01:47:00;;;;;;;2.70;1.10;;;16.00;49.50;;;;;;5011184;28;20474;-85
2023/05/30 01:54:31;;;;;;;;;;;;;;;;;;;;;
2023/05/30 01:57:51;;;;;;;2.67;1.47;;;15.70;50.50;;;;;;5011695;28;20997;-85
2023/05/30 02:01:10;;;;;;;2.70;0.93;;;15.60;50.80;;;;;;4972727;28;20516;-84
2023/05/30 02:04:40;;;;;;;3.77;1.27;;;15.60;50.60;;;;;;5010073;28;20450;-84
2023/05/30 02:10:21;;;;;;;2.77;1.37;;;15.40;51.60;;;;;;4250717;26;20485;-84
2023/05/30 02:13:18;;;;;;;;;;;;;;;;;;;;;
2023/05/30 02:15:57;;;;;;;2.70;1.40;;;15.30;52.50;;;;;;5019657;28;20485;-85
2023/05/30 02:18:48;;;;;;;3.97;0.90;;;15.20;51.70;;;;;;5019425;28;20952;-84
2023/05/30 02:21:53;;;;;;;4.83;1.20;;;15.10;52.20;;;;;;5015217;28;20472;-85
2023/05/30 02:24:27;;;;;;;4.80;1.50;;;15.00;52.20;;;;;;5013998;28;20454;-84
2023/05/30 02:27:38;;;;;;;6.63;1.60;;;14.90;52.70;;;;;;5050600;22;20554;-83
2023/05/30 02:30:25;;;;;;;1.50;1.07;;;14.80;53.50;;;;;;5020118;28;20458;-83
2023/05/30 02:33:35;;;;;;;4.40;1.17;;;14.80;53.80;;;;;;5034163;28;20447;-82
2023/05/30 02:36:19;;;;;;;4.53;1.33;;;14.90;54.00;;;;;;5029540;28;20470;-83
2023/05/30 02:39:20;;;;;;;4.60;1.10;;;15.00;54.10;;;;;;5025523;28;20459;-80
2023/05/30 02:42:20;;;;;;;3.40;1.20;;;15.00;54.30;;;;;;5046953;28;20473;-82
2023/05/30 02:45:35;;;;;;;3.57;1.40;;;15.00;54.40;;;;;;5012567;28;20441;-83
2023/05/30 02:49:02;;;;;;;1.40;1.00;;;15.00;54.70;;;;;;5023318;28;20458;-85
2023/05/30 02:52:09;;;;;;;2.00;1.10;;;15.00;54.60;;;;;;5020786;28;20462;-85
2023/05/30 02:55:26;;;;;;;3.43;1.37;;;15.00;55.20;;;;;;5003431;28;20470;-85
2023/05/30 03:01:49;;;;;;;4.47;1.23;;;14.70;56.10;;;;;;5027360;28;21284;-84
2023/05/30 03:05:26;;;;;;;1.60;1.10;;;14.70;55.80;;;;;;5022832;28;20466;-84
2023/05/30 03:08:20;;;;;;;3.80;0.90;;;14.70;56.60;;;;;;5013060;28;20746;-83
2023/05/30 03:11:02;;;;;;;3.03;1.40;;;14.70;56.10;;;;;;5016180;28;20458;-81
2023/05/30 03:13:54;;;;;;;7.50;1.60;;;14.60;56.60;;;;;;5013385;28;20462;-85
2023/05/30 03:17:06;;;;;;;;;;;;;;;;;;;;;
2023/05/30 03:23:51;;;;;;;;;;;;;;;;;;;;;
2023/05/30 03:26:51;;;;;;;5.37;1.50;;;14.60;57.00;;;;;;5016854;28;20576;-84
2023/05/30 03:29:45;;;;;;;6.83;1.50;;;14.50;57.60;;;;;;5028917;28;21009;-83
2023/05/30 03:32:48;;;;;;;5.70;1.57;;;14.70;57.60;;;;;;5038478;28;20503;-86
2023/05/30 03:35:21;;;;;;;2.17;1.23;;;14.40;57.80;;;;;;5019002;28;20470;-81
2023/05/30 03:37:54;;;;;;;2.63;1.20;;;14.30;58.30;;;;;;5079176;22;20510;-83
2023/05/30 03:40:28;;;;;;;4.23;1.40;;;14.40;58.40;;;;;;5032365;28;20519;-82
2023/05/30 03:43:29;;;;;;;4.63;1.33;;;14.40;58.70;;;;;;5042039;28;21191;-84
2023/05/30 03:46:19;;;;;;;5.37;1.30;;;14.50;58.60;;;;;;5035810;28;20508;-84
2023/05/30 03:49:19;;;;;;;5.80;1.30;;;14.40;58.90;;;;;;5022826;28;20468;-86
2023/05/30 03:52:05;;;;;;;6.40;1.77;;;14.50;59.30;;;;;;5005203;28;20462;-86
2023/05/30 03:54:54;;;;;;;5.10;1.60;;;14.60;59.00;;;;;;5024213;28;20490;-86
2023/05/30 03:57:38;;;;;;;2.20;1.03;;;14.60;59.30;;;;;;5026273;28;20471;-82
2023/05/30 04:00:12;;;;;;;4.57;1.30;;;14.50;59.60;;;;;;5035772;28;20458;-82
2023/05/30 04:02:53;;;;;;;3.70;1.50;;;14.30;60.00;;;;;;5027277;28;20573;-83
2023/05/30 04:05:39;;;;;;;3.37;1.30;;;14.30;60.60;;;;;;5037859;28;20471;-82
2023/05/30 04:08:34;;;;;;;3.97;1.70;;;14.30;61.10;;;;;;5034301;28;20446;-81
2023/05/30 04:11:21;;;;;;;4.53;1.80;;;14.40;61.30;;;;;;5032378;28;20446;-81
2023/05/30 04:14:01;;;;;;;5.20;1.90;;;14.30;61.00;;;;;;5032614;28;20454;-81
2023/05/30 04:16:42;;;;;;;3.67;1.87;;;14.30;61.50;;;;;;5023896;28;21283;-84
2023/05/30 04:19:24;;;;;;;5.10;1.73;;;14.40;61.50;;;;;;5009779;28;20463;-84
2023/05/30 04:22:10;;;;;;;5.60;2.03;;;14.30;61.90;;;;;;5009525;28;20490;-82
2023/05/30 04:24:56;;;;;;;3.53;1.60;;;14.40;62.60;;;;;;5035704;28;20508;-82
2023/05/30 04:27:47;;;;;;;2.40;1.60;;;14.50;62.60;;;;;;5029163;28;20477;-84
2023/05/30 04:30:28;;;;;;;8.93;1.80;;;14.30;62.70;;;;;;5017114;28;20458;-82
2023/05/30 04:33:19;;;;;;;;;;;;;;;;;;;;;
2023/05/30 04:38:57;;;;;;;3.13;1.90;;;14.30;63.60;;;;;;5024238;28;20525;-83
2023/05/30 04:41:47;;;;;;;3.70;1.63;;;14.30;65.00;;;;;;5015319;28;20477;-83
2023/05/30 04:44:50;;;;;;;6.60;2.30;;;14.40;65.20;;;;;;5026267;28;20461;-83
2023/05/30 04:47:44;;;;;;;4.67;2.47;;;14.40;64.80;;;;;;5015824;28;20462;-83
2023/05/30 04:54:16;;;;;;;6.63;2.07;;;14.20;65.50;;;;;;4989621;28;20459;-85
2023/05/30 05:03:18;;;;;;;7.43;2.53;;;14.60;66.60;;;;;;5050628;28;20467;-83
2023/05/30 05:05:53;;;;;;;5.70;1.83;;;14.60;66.40;;;;;;5055832;28;20477;-85
2023/05/30 05:12:00;;;;;;;;;;;;;;;;;;;;;
2023/05/30 05:14:57;;;;;;;7.93;2.30;;;14.60;67.10;;;;;;5060256;28;20560;-82
2023/05/30 05:18:01;;;;;;;3.93;2.40;;;14.60;66.90;;;;;;5054016;28;20484;-83
2023/05/30 05:23:53;;;;;;;8.37;2.60;;;14.80;65.10;;;;;;5043583;28;20545;-85
2023/05/30 05:26:51;;;;;;;8.73;3.27;;;14.60;65.30;;;;;;5036799;28;20473;-84
2023/05/30 05:30:08;;;;;;;4.93;2.57;;;14.50;66.00;;;;;;5033198;28;20453;-86
2023/05/30 05:32:50;;;;;;;4.07;2.00;;;14.50;67.20;;;;;;5022604;28;20456;-83
2023/05/30 05:38:51;;;;;;;6.57;2.70;;;15.00;65.10;;;;;;5036219;28;20441;-84
2023/05/30 05:41:32;;;;;;;4.97;2.53;;;15.00;64.80;;;;;;5032382;28;20441;-84
2023/05/30 05:44:34;;;;;;;7.07;2.97;;;14.80;65.80;;;;;;4975211;28;20468;-85
2023/05/30 05:50:59;;;;;;;5.47;2.67;;;15.10;64.80;;;;;;5030910;28;20516;-84
2023/05/30 06:03:59;;;;;;;3.43;2.10;;;15.30;64.90;;;;;;5001017;28;20453;-83
2023/05/30 06:07:13;;;;;;;8.90;2.97;;;15.20;64.30;;;;;;5040051;28;20502;-82
2023/05/30 06:13:50;;;;;;;5.60;2.53;;;15.10;63.50;;;;;;5035200;28;20461;-83
2023/05/30 06:28:33;;;;;;;5.47;2.70;;;15.60;61.50;;;;;;5014598;28;20465;-84
2023/05/30 06:31:29;;;;;;;6.80;2.63;;;15.40;62.60;;;;;;5015499;28;20981;-85
2023/05/30 06:37:50;;;;;;;8.40;2.80;;;15.50;62.90;;;;;;5025067;28;20802;-82
2023/05/30 06:40:58;;;;;;;3.53;2.27;;;15.90;61.70;;;;;;5007171;28;20726;-82
2023/05/30 06:47:27;;;;;;;8.30;3.20;;;15.90;61.20;;;;;;5064978;23;20499;-83
2023/05/30 06:50:51;;;;;;;;;;;;;;;;;;;;;
2023/05/30 06:57:28;;;;;;;;;;;;;;;;;;;;;
2023/05/30 07:00:42;;;;;;;5.40;2.40;;;16.30;59.40;;;;;;5029995;28;20491;-85
2023/05/30 07:11:44;;;;;;;9.50;3.50;;;16.60;59.80;;;;;;5020879;28;20534;-85
2023/05/30 07:15:06;;;;;;;5.70;3.27;;;16.80;59.10;;;;;;5027493;28;20441;-82
2023/05/30 07:18:28;;;;;;;5.37;3.23;;;16.90;58.80;;;;;;5009859;28;20527;-84
2023/05/30 07:21:38;;;;;;;6.60;3.23;;;16.90;57.80;;;;;;4940468;28;20452;-85
2023/05/30 07:24:45;;;;;;;6.77;3.53;;;16.80;58.40;;;;;;4884644;28;20467;-83
2023/05/30 07:33:29;;;;;;;6.47;4.00;;;17.50;58.10;;;;;;1303140;26;20493;-85
2023/05/30 07:36:15;;;;;;;6.67;4.23;;;17.70;55.90;;;;;;5015284;28;20505;-84
2023/05/30 07:38:48;;;;;;;6.23;3.43;;;17.70;56.30;;;;;;5010140;28;20461;-83
2023/05/30 07:41:32;;;;;;;6.37;3.73;;;17.70;56.40;;;;;;5017217;28;20461;-83
2023/05/30 07:44:02;;;;;;;5.57;3.70;;;17.40;56.40;;;;;;5014919;28;20991;-85
2023/05/30 07:46:30;;;;;;;7.00;3.60;;;17.50;56.60;;;;;;5013955;28;20462;-84
2023/05/30 07:49:23;;;;;;;8.13;3.60;;;17.40;57.00;;;;;;5006824;28;20444;-85
2023/05/30 07:52:45;;;;;;;7.80;3.30;;;18.00;56.50;;;;;;5005812;28;20459;-83
2023/05/30 07:55:34;;;;;;;7.67;3.07;;;17.90;56.10;;;;;;5012625;28;20484;-83
2023/05/30 08:01:41;;;;;;;5.50;3.53;;;18.40;55.60;;;;;;5022653;28;20550;-82
2023/05/30 08:04:43;;;;;;;5.30;3.63;;;18.40;55.70;;;;;;5018720;28;20485;-83
2023/05/30 08:07:47;;;;;;;;;;;;;;;;;;;;;
2023/05/30 08:10:55;;;;;;;3.00;2.70;;;18.30;55.20;;;;;;4946831;28;21103;-84
2023/05/30 08:13:29;;;;;;;8.73;3.63;;;18.50;56.30;;;;;;4949960;28;21130;-85
2023/05/30 08:15:58;;;;;;;5.80;3.33;;;18.90;55.50;;;;;;4935426;29;20476;-84
2023/05/30 08:18:30;;;;;;;6.63;3.80;;;18.60;55.40;;;;;;4952173;28;20453;-84
2023/05/30 08:21:11;;;;;;;7.10;4.37;;;19.10;55.50;;;;;;4955409;28;20456;-83
2023/05/30 08:24:36;;;;;;;5.57;3.67;;;19.20;54.80;;;;;;4955928;28;20553;-84
2023/05/30 08:28:18;;;;;;;;;;;;;;;;;;;;;
2023/05/30 08:31:44;;;;;;;7.43;3.33;;;19.40;53.50;;;;;;4944133;28;20976;-85
2023/05/30 08:35:10;;;;;;;4.60;3.50;;;19.30;54.30;;;;;;4916506;28;20488;-83
2023/05/30 08:51:52;;;;;;;;;;;;;;;;;;;;;
2023/05/30 08:55:22;;;;;;;7.53;3.13;;;21.90;49.00;;;;;;5037289;28;20465;-86
2023/05/30 09:02:27;;;;;;;5.83;2.90;;;23.00;46.70;;;;;;4976276;28;20443;-83
2023/05/30 09:09:12;;;;;;;11.20;2.90;;;24.40;44.30;;;;;;5056023;23;20547;-85
2023/05/30 09:11:56;;;;;;;4.70;2.80;;;23.80;44.60;;;;;;4999400;28;20453;-84
2023/05/30 09:15:05;;;;;;;4.23;3.37;;;23.80;44.80;;;;;;5012763;28;20449;-85
2023/05/30 09:18:01;;;;;;;5.50;2.97;;;26.00;43.10;;;;;;4996826;28;20481;-85
2023/05/30 09:20:50;;;;;;;5.10;2.93;;;25.90;42.00;;;;;;5004950;28;20436;-85
2023/05/30 09:23:40;;;;;;;3.97;2.73;;;26.50;41.50;;;;;;4998767;28;20511;-84
2023/05/30 09:27:05;;;;;;;6.07;3.03;;;27.90;39.30;;;;;;5017680;28;20882;-85
2023/05/30 09:30:14;;;;;;;3.60;3.00;;;27.50;38.80;;;;;;5004107;28;20498;-84
2023/05/30 09:39:38;;;;;;;5.00;3.07;;;28.00;38.10;;;;;;5009384;28;20454;-84
2023/05/30 09:42:17;;;;;;;4.73;2.73;;;27.90;38.50;;;;;;4998396;28;20458;-85
2023/05/30 09:45:14;;;;;;;5.93;2.77;;;28.00;38.00;;;;;;5001676;28;20449;-83
2023/05/30 09:48:58;;;;;;;3.00;2.67;;;27.10;39.10;;;;;;5051211;28;21277;-85
2023/05/30 09:51:43;;;;;;;4.30;3.20;;;28.30;38.80;;;;;;5047430;28;20456;-84
2023/05/30 09:54:53;;;;;;;;;;;;;;;;;;;;;
2023/05/30 09:57:47;;;;;;;3.87;2.93;;;28.60;37.30;;;;;;5052631;28;20484;-84
2023/05/30 10:00:34;;;;;;;3.50;3.00;;;28.80;37.50;;;;;;5040990;28;20996;-83
2023/05/30 10:10:54;;;;;;;;;;;;;;;;;;;;;
2023/05/30 10:14:24;;;;;;;;;;;;;;;;;;;;;
2023/05/30 10:21:04;;;;;;;3.50;2.57;;;28.60;36.90;;;;;;4926005;28;20546;-83
2023/05/30 10:24:21;;;;;;;7.03;4.27;;;29.50;36.30;;;;;;4967396;28;20951;-84
2023/05/30 10:31:01;;;;;;;3.90;2.97;;;29.10;36.10;;;;;;5040256;28;20466;-83
2023/05/30 10:34:22;;;;;;;3.80;2.60;;;29.00;36.00;;;;;;5040686;28;20453;-83
2023/05/30 10:37:37;;;;;;;4.50;3.13;;;28.50;36.70;;;;;;4962973;28;20626;-83
2023/05/30 10:49:10;;;;;;;;;;;;;;;;;;;;;
2023/05/30 11:02:46;;;;;;;3.03;2.73;;;27.90;36.20;;;;;;4955826;28;20468;-84
2023/05/30 11:33:27;;;;;;;2.80;2.33;;;29.70;31.80;;;;;;5018072;28;21021;-85
2023/05/30 11:36:24;;;;;;;3.40;2.90;;;28.80;31.60;;;;;;4992134;28;20496;-84
2023/05/30 11:39:48;;;;;;;3.07;2.57;;;28.70;31.50;;;;;;5009129;28;20564;-83
2023/05/30 11:42:47;;;;;;;2.60;2.40;;;28.90;31.80;;;;;;4944168;28;20472;-85
2023/05/30 11:49:50;;;;;;;5.27;2.80;;;29.00;31.00;;;;;;4954103;28;20481;-84
2023/05/30 11:53:40;;;;;;;;;;;;;;;;;;;;;
2023/05/30 11:57:16;;;;;;;3.83;2.70;;;27.90;31.80;;;;;;5003689;23;20543;-81
2023/05/30 12:01:15;;;;;;;2.97;2.23;;;28.30;31.90;;;;;;4951296;28;21616;-84
2023/05/30 12:05:04;;;;;;;;;;;;;;;;;;;;;
2023/05/30 12:08:45;;;;;;;2.80;2.40;;;27.80;30.60;;;;;;5004042;28;20481;-83
2023/05/30 12:16:04;;;;;;;3.27;2.10;;;28.30;30.90;;;;;;4983936;28;20459;-82
2023/05/30 12:23:10;;;;;;;2.67;2.47;;;28.70;30.40;;;;;;5004974;28;20459;-82
2023/05/30 12:26:54;;;;;;;3.10;2.80;;;28.40;30.20;;;;;;5037535;28;21089;-82
2023/05/30 12:30:23;;;;;;;3.10;2.80;;;28.60;30.60;;;;;;5020679;28;20438;-81
2023/05/30 12:45:53;;;;;;;;;;;;;;;;;;;;;
2023/05/30 12:48:50;;;;;;;5.43;2.97;;;28.20;31.30;;;;;;5000311;28;20465;-82
2023/05/30 12:52:04;;;;;;;4.03;3.10;;;27.90;31.40;;;;;;5031584;28;20454;-82
2023/05/30 12:55:17;;;;;;;;;;;;;;;;;;;;;
2023/05/30 12:58:30;;;;;;;2.70;2.50;;;27.80;31.40;;;;;;5031958;28;20468;-83
2023/05/30 13:01:28;;;;;;;4.40;2.80;;;28.10;31.30;;;;;;5021526;28;20446;-83
2023/05/30 13:04:53;;;;;;;3.43;2.40;;;28.20;31.00;;;;;;5010097;28;20450;-84
2023/05/30 13:07:48;;;;;;;3.00;2.63;;;27.60;31.10;;;;;;5003218;28;20557;-84
2023/05/30 13:11:02;;;;;;;5.07;2.80;;;27.50;31.80;;;;;;5010419;28;20529;-85
2023/05/30 13:14:07;;;;;;;3.20;2.70;;;27.70;31.30;;;;;;5008097;28;20454;-84
2023/05/30 13:21:50;;;;;;;3.70;3.30;;;27.30;31.90;;;;;;4907517;29;20483;-83
2023/05/30 13:25:10;;;;;;;3.50;2.50;;;27.20;32.70;;;;;;4882105;28;20474;-84
2023/05/30 13:35:22;;;;;;;4.43;2.70;;;27.50;32.00;;;;;;4939041;29;20479;-81
2023/05/30 13:39:03;;;;;;;3.17;2.87;;;26.90;32.70;;;;;;5188284;23;20473;-85
2023/05/30 13:46:10;;;;;;;;;;;;;;;;;;;;;
2023/05/30 13:49:07;;;;;;;4.13;2.30;;;26.70;33.30;;;;;;4940627;28;20448;-84
2023/05/30 13:55:29;;;;;;;5.70;3.00;;;26.80;32.80;;;;;;5038967;28;20541;-85
2023/05/30 14:09:31;;;;;;;4.13;2.60;;;26.40;34.10;;;;;;5023116;28;20475;-83
2023/05/30 14:12:38;;;;;;;3.53;2.70;;;26.30;34.80;;;;;;5026856;28;20457;-83
2023/05/30 14:15:43;;;;;;;4.30;2.77;;;26.00;35.60;;;;;;5022508;28;20437;-84
2023/05/30 14:21:50;;;;;;;3.70;3.30;;;25.90;35.80;;;;;;4972726;28;20453;-83
2023/05/30 14:25:25;;;;;;;3.13;2.60;;;25.80;36.00;;;;;;5026783;28;20444;-83
2023/05/30 14:28:23;;;;;;;3.70;2.63;;;25.70;37.40;;;;;;5209016;23;20599;-84
2023/05/30 14:35:17;;;;;;;5.43;3.57;;;25.80;37.80;;;;;;5027635;28;20797;-83
2023/05/30 14:38:40;;;;;;;2.77;2.50;;;25.80;38.10;;;;;;5031864;28;20511;-84
2023/05/30 14:41:59;;;;;;;2.70;2.50;;;25.60;38.70;;;;;;5032996;28;20772;-84
2023/05/30 14:48:30;;;;;;;2.03;1.93;;;25.90;39.40;;;;;;5035617;28;20462;-84
2023/05/30 14:51:36;;;;;;;3.53;3.23;;;25.80;39.90;;;;;;5034547;28;20459;-84
2023/05/30 14:54:37;;;;;;;7.80;3.20;;;25.70;39.10;;;;;;5031817;28;20484;-85
2023/05/30 14:57:38;;;;;;;2.90;2.60;;;25.80;39.30;;;;;;5034590;28;20489;-83
2023/05/30 15:00:41;;;;;;;3.77;2.60;;;25.90;39.30;;;;;;5029198;28;20441;-84
2023/05/30 15:03:27;;;;;;;4.23;2.40;;;25.60;39.80;;;;;;5034630;28;20461;-82
2023/05/30 15:06:17;;;;;;;2.93;2.57;;;25.50;40.20;;;;;;5035626;28;20484;-84
2023/05/30 15:08:56;;;;;;;2.60;2.23;;;25.40;40.90;;;;;;5036353;28;20829;-84
2023/05/30 15:11:46;;;;;;;3.60;2.40;;;25.50;41.00;;;;;;5038234;28;20460;-85
2023/05/30 15:14:56;;;;;;;2.90;2.47;;;25.50;41.00;;;;;;5037555;28;20432;-84
2023/05/30 15:17:39;;;;;;;2.40;2.20;;;25.50;40.70;;;;;;5032090;28;20483;-85
2023/05/30 15:20:21;;;;;;;3.10;2.27;;;25.40;41.20;;;;;;5036163;28;20475;-82
2023/05/30 15:22:51;;;;;;;2.70;2.30;;;25.40;41.40;;;;;;5036251;28;20461;-83
2023/05/30 15:25:36;;;;;;;2.30;2.10;;;25.40;41.80;;;;;;5050593;28;20446;-83
2023/05/30 15:28:24;;;;;;;3.17;2.53;;;25.40;41.90;;;;;;5036054;28;20485;-83
2023/05/30 15:31:11;;;;;;;4.27;2.40;;;25.40;41.90;;;;;;5025959;28;20461;-83
2023/05/30 15:34:04;;;;;;;2.80;2.40;;;25.80;41.60;;;;;;5038694;28;20457;-86
2023/05/30 15:36:49;;;;;;;2.93;2.50;;;25.60;42.20;;;;;;5029382;28;20505;-84
2023/05/30 15:39:28;;;;;;;3.57;2.43;;;25.40;42.60;;;;;;5033254;28;20456;-83
2023/05/30 15:42:26;;;;;;;4.50;2.83;;;25.60;42.80;;;;;;5031410;28;20446;-82
2023/05/30 15:45:04;;;;;;;3.60;2.47;;;25.50;42.80;;;;;;5034922;28;20445;-82
2023/05/30 15:47:51;;;;;;;2.73;2.53;;;25.40;43.20;;;;;;5164484;22;20502;-84
2023/05/30 15:50:57;;;;;;;3.20;2.90;;;25.50;43.40;;;;;;5013084;28;20453;-83
2023/05/30 15:53:38;;;;;;;2.80;2.60;;;25.50;43.20;;;;;;5010598;28;20475;-85
2023/05/30 15:56:21;;;;;;;4.53;2.80;;;25.50;43.30;;;;;;5009480;28;20485;-84
2023/05/30 15:58:59;;;;;;;4.20;3.00;;;25.50;43.50;;;;;;5015767;28;20458;-82
2023/05/30 16:01:41;;;;;;;4.63;2.93;;;25.40;43.40;;;;;;5015449;28;20458;-81
2023/05/30 16:04:20;;;;;;;3.47;3.00;;;25.30;44.10;;;;;;5015055;28;20447;-85
2023/05/30 16:06:57;;;;;;;3.90;2.90;;;25.30;44.00;;;;;;5014446;28;20516;-83
2023/05/30 16:09:38;;;;;;;3.37;3.10;;;25.50;44.00;;;;;;5001855;28;20454;-82
2023/05/30 16:12:11;;;;;;;7.47;3.43;;;25.50;44.00;;;;;;5003015;28;20463;-84
2023/05/30 16:14:43;;;;;;;3.30;2.50;;;25.60;43.40;;;;;;5005541;28;20571;-83
2023/05/30 16:17:35;;;;;;;2.80;2.60;;;25.50;43.60;;;;;;5014037;28;20475;-83
2023/05/30 16:20:11;;;;;;;3.10;2.80;;;25.40;44.30;;;;;;5013507;28;20516;-81
2023/05/30 16:22:45;;;;;;;4.57;4.13;;;25.20;44.50;;;;;;5013805;28;20447;-82
2023/05/30 16:25:18;;;;;;;4.10;3.10;;;25.20;44.70;;;;;;5007975;28;20444;-84
2023/05/30 16:28:02;;;;;;;3.87;2.70;;;25.00;44.70;;;;;;5052178;23;20574;-83
2023/05/30 16:30:44;;;;;;;5.60;3.60;;;25.00;44.70;;;;;;5024117;28;20535;-84
2023/05/30 16:33:30;;;;;;;4.80;3.30;;;25.10;45.20;;;;;;5043293;28;20515;-85
2023/05/30 16:36:06;;;;;;;3.13;2.83;;;25.30;44.60;;;;;;5017194;28;20475;-82
2023/05/30 16:38:51;;;;;;;3.17;2.70;;;25.10;45.10;;;;;;5016276;28;20447;-85
2023/05/30 16:41:31;;;;;;;4.27;2.60;;;25.20;45.30;;;;;;5017615;28;20462;-85
2023/05/30 16:44:24;;;;;;;3.50;2.87;;;25.10;45.00;;;;;;5012386;28;20460;-84
2023/05/30 16:46:58;;;;;;;6.17;3.40;;;25.00;45.30;;;;;;5018503;28;21401;-83
2023/05/30 16:49:42;;;;;;;7.30;3.50;;;25.00;45.40;;;;;;5013098;28;20442;-83
2023/05/30 16:52:24;;;;;;;3.77;3.00;;;24.90;45.30;;;;;;5014155;28;20580;-85
2023/05/30 16:55:14;;;;;;;5.93;2.90;;;24.60;46.00;;;;;;5011385;28;20511;-83
2023/05/30 16:57:49;;;;;;;3.10;2.80;;;24.60;46.60;;;;;;5019722;28;20483;-84
2023/05/30 17:00:34;;;;;;;3.77;2.43;;;24.60;46.40;;;;;;5013663;28;20458;-80
2023/05/30 17:03:19;;;;;;;3.53;3.10;;;24.60;46.30;;;;;;5036722;28;20434;-82
2023/05/30 17:06:08;;;;;;;3.73;3.43;;;24.60;46.20;;;;;;5210090;22;20469;-81
2023/05/30 17:08:41;;;;;;;5.50;3.20;;;24.70;46.50;;;;;;5040006;28;20441;-81
2023/05/30 17:11:13;;;;;;;5.57;2.67;;;24.70;46.40;;;;;;5047498;28;20445;-85
2023/05/30 17:13:47;;;;;;;4.93;4.43;;;24.70;46.30;;;;;;5044786;28;20516;-81
2023/05/30 17:16:30;;;;;;;3.20;2.60;;;24.70;46.70;;;;;;5049449;28;20480;-80
2023/05/30 17:19:02;;;;;;;3.30;2.80;;;24.70;46.60;;;;;;5054762;28;20461;-81
2023/05/30 17:21:53;;;;;;;4.63;2.57;;;24.60;47.00;;;;;;5053243;28;20433;-81
2023/05/30 17:24:24;;;;;;;3.37;2.30;;;24.50;47.30;;;;;;5047090;28;20829;-84
2023/05/30 17:29:49;;;;;;;3.67;2.80;;;24.40;47.70;;;;;;5047230;28;20454;-82
2023/05/30 17:32:37;;;;;;;3.00;2.70;;;24.40;47.50;;;;;;5043442;28;20439;-85
2023/05/30 17:35:13;;;;;;;3.70;2.63;;;24.40;47.50;;;;;;5047940;28;20467;-84
2023/05/30 17:38:01;;;;;;;4.73;2.67;;;24.30;47.70;;;;;;5036060;28;20484;-85
2023/05/30 17:40:33;;;;;;;3.37;2.47;;;24.30;48.00;;;;;;5036555;28;20444;-84
2023/05/30 17:43:11;;;;;;;3.90;2.67;;;24.30;48.30;;;;;;5031827;28;20461;-85
2023/05/30 17:46:08;;;;;;;7.03;2.67;;;24.40;48.80;;;;;;5037090;28;20465;-84
2023/05/30 17:48:48;;;;;;;2.40;2.20;;;24.30;48.70;;;;;;5032169;28;20487;-83
2023/05/30 17:51:56;;;;;;;3.37;2.23;;;24.10;48.80;;;;;;5005077;28;20559;-84
2023/05/30 17:54:47;;;;;;;4.17;2.97;;;24.00;49.10;;;;;;5019365;28;20450;-82
2023/05/30 17:57:49;;;;;;;2.50;2.30;;;24.00;49.00;;;;;;5043956;23;21476;-82
2023/05/30 18:00:55;;;;;;;;;;;;;;;;;;;;;
2023/05/30 18:03:33;;;;;;;6.40;2.53;;;24.00;49.70;;;;;;5002975;28;20458;-83
2023/05/30 18:06:25;;;;;;;4.80;2.97;;;23.90;49.90;;;;;;4995741;28;20874;-81
2023/05/30 18:09:13;;;;;;;4.33;2.80;;;23.90;49.60;;;;;;5007516;28;20509;-85
2023/05/30 18:12:03;;;;;;;3.33;2.30;;;23.50;49.90;;;;;;5010930;28;20450;-84
2023/05/30 18:15:03;;;;;;;3.40;2.47;;;23.50;50.50;;;;;;5008574;28;20469;-83
2023/05/30 18:17:55;;;;;;;3.10;2.80;;;23.30;51.00;;;;;;5015432;28;20537;-82
2023/05/30 18:20:48;;;;;;;3.70;2.87;;;23.50;51.30;;;;;;5016471;28;20438;-81
2023/05/30 18:23:58;;;;;;;3.50;1.93;;;23.50;51.90;;;;;;5020344;28;20460;-81
2023/05/30 18:27:17;;;;;;;3.23;2.93;;;23.40;51.20;;;;;;5009873;28;20458;-82
2023/05/30 18:29:58;;;;;;;5.43;2.93;;;23.40;51.10;;;;;;5010448;28;20460;-82
2023/05/30 18:32:51;;;;;;;2.60;2.30;;;23.30;51.60;;;;;;4989641;28;20554;-84
2023/05/30 18:35:47;;;;;;;4.50;3.53;;;23.00;52.30;;;;;;5021571;28;20461;-83
2023/05/30 18:38:47;;;;;;;3.70;2.97;;;23.00;52.20;;;;;;5006136;28;20477;-83
2023/05/30 18:41:40;;;;;;;5.07;3.20;;;23.00;52.10;;;;;;5008450;28;20450;-82
2023/05/30 18:44:17;;;;;;;2.60;2.40;;;22.90;52.30;;;;;;5007623;28;20500;-83
2023/05/30 18:50:22;;;;;;;4.73;3.20;;;22.70;52.70;;;;;;5013589;28;20472;-83
2023/05/30 18:52:57;;;;;;;4.27;2.80;;;22.80;53.10;;;;;;5013743;28;20449;-83
2023/05/30 18:55:35;;;;;;;3.00;2.70;;;22.70;52.80;;;;;;5017698;28;20935;-81
2023/05/30 18:58:31;;;;;;;3.40;2.67;;;22.40;54.10;;;;;;5005758;28;20490;-82
2023/05/30 19:01:03;;;;;;;4.70;2.77;;;22.50;54.00;;;;;;5018486;28;20427;-82
2023/05/30 19:03:40;;;;;;;4.93;2.70;;;22.60;54.20;;;;;;5020970;28;20450;-81
2023/05/30 19:06:48;;;;;;;3.00;2.80;;;22.60;54.20;;;;;;5030369;28;20476;-81
2023/05/30 19:09:28;;;;;;;3.20;2.90;;;22.50;53.80;;;;;;5015446;28;20529;-81
2023/05/30 19:12:27;;;;;;;3.23;2.90;;;22.50;54.30;;;;;;4991741;28;20458;-80
2023/05/30 19:15:11;;;;;;;5.30;2.60;;;22.40;54.60;;;;;;4990360;28;20474;-82
2023/05/30 19:18:02;;;;;;;5.10;3.17;;;22.50;54.40;;;;;;4992324;28;20550;-83
2023/05/30 19:21:12;;;;;;;6.87;3.50;;;22.30;54.50;;;;;;4965583;28;20438;-83
2023/05/30 19:23:44;;;;;;;4.47;2.97;;;22.30;54.80;;;;;;4988998;28;20463;-81
2023/05/30 19:26:37;;;;;;;4.10;3.10;;;22.20;54.90;;;;;;4993292;28;20478;-82
2023/05/30 19:29:10;;;;;;;5.03;2.80;;;22.00;55.30;;;;;;4988636;28;20459;-82
2023/05/30 19:32:08;;;;;;;5.43;2.77;;;22.00;55.50;;;;;;5000057;28;20463;-81
2023/05/30 19:34:50;;;;;;;3.90;2.43;;;22.00;55.70;;;;;;4986445;28;20561;-82
2023/05/30 19:37:47;;;;;;;4.70;3.30;;;22.00;56.10;;;;;;4991543;28;20682;-81
2023/05/30 19:40:37;;;;;;;3.17;2.93;;;22.00;56.20;;;;;;4990687;28;20870;-81
2023/05/30 19:46:29;;;;;;;4.53;2.80;;;21.70;57.20;;;;;;4991459;28;20497;-81
2023/05/30 19:49:05;;;;;;;4.57;2.70;;;21.60;58.10;;;;;;4997308;28;20455;-84
2023/05/30 19:51:42;;;;;;;3.60;3.23;;;21.70;58.60;;;;;;4999909;28;20467;-82
2023/05/30 19:54:23;;;;;;;3.73;3.10;;;21.70;58.60;;;;;;4996209;28;20467;-82
2023/05/30 19:57:17;;;;;;;5.93;3.83;;;21.70;59.10;;;;;;4996453;28;21309;-82
2023/05/30 19:59:54;;;;;;;5.00;3.10;;;21.40;59.40;;;;;;5009122;28;20466;-82
2023/05/30 20:02:55;;;;;;;;;;;;;;;;;;;;;
2023/05/30 20:06:45;;;;;;;3.47;2.83;;;21.10;61.70;;;;;;4995406;28;20438;-82
2023/05/30 20:09:38;;;;;;;3.87;3.47;;;20.80;62.50;;;;;;4955581;28;22329;-82
2023/05/30 20:13:06;;;;;;;3.70;2.73;;;20.80;63.50;;;;;;4954371;28;21338;-82
2023/05/30 20:16:24;;;;;;;4.17;3.77;;;20.70;64.10;;;;;;4955963;28;20462;-82
2023/05/30 20:19:38;;;;;;;3.20;2.90;;;20.90;64.20;;;;;;4890724;29;20667;-82
2023/05/30 20:23:14;;;;;;;2.97;2.73;;;21.00;63.90;;;;;;4904806;29;20863;-83
2023/05/30 20:26:24;;;;;;;4.00;2.33;;;20.80;64.20;;;;;;4942061;28;20492;-83
2023/05/30 20:28:56;;;;;;;3.63;3.10;;;20.50;65.20;;;;;;4960848;28;20500;-84
2023/05/30 20:31:31;;;;;;;4.03;3.37;;;20.40;66.20;;;;;;4975097;28;20454;-81
2023/05/30 20:34:06;;;;;;;3.03;2.80;;;20.50;66.20;;;;;;4996463;28;20465;-83
2023/05/30 20:36:45;;;;;;;3.43;2.77;;;20.40;66.80;;;;;;5015173;28;20986;-81
2023/05/30 20:39:20;;;;;;;3.77;3.20;;;20.40;67.40;;;;;;4998649;28;20493;-81
2023/05/30 20:41:55;;;;;;;3.33;2.70;;;20.50;67.70;;;;;;5013634;28;20454;-81
2023/05/30 20:44:25;;;;;;;6.83;2.90;;;20.30;67.50;;;;;;5018883;28;20438;-82
2023/05/30 20:50:20;;;;;;;4.13;3.20;;;20.30;68.10;;;;;;5006458;28;20479;-81
2023/05/30 20:53:40;;;;;;;8.40;2.80;;;20.20;68.50;;;;;;5004803;28;20887;-83